createdAt,value
2023-03-13T00:00:31.548Z,6.25
2023-03-13T00:02:57.328Z,5.72
2023-03-13T00:05:23.121Z,6.43
2023-03-13T00:07:48.973Z,6.50
2023-03-13T00:10:14.720Z,7.32
2023-03-13T00:12:40.461Z,7.03
2023-03-13T00:15:06.462Z,5.80
2023-03-13T00:17:32.792Z,6.57
2023-03-13T00:19:58.784Z,6.78
2023-03-13T00:22:24.504Z,5.53
2023-03-13T00:24:50.651Z,7.07
2023-03-13T00:27:16.402Z,5.95
2023-03-13T00:29:42.227Z,7.10
2023-03-13T00:32:07.981Z,6.85
2023-03-13T00:34:33.714Z,7.15
2023-03-13T00:36:59.433Z,6.32
2023-03-13T00:39:25.240Z,6.53
2023-03-13T00:41:50.978Z,5.63
2023-03-13T00:44:16.699Z,6.35
2023-03-13T00:46:42.440Z,6.80
2023-03-13T00:49:08.166Z,5.97
2023-03-13T00:51:33.873Z,6.18
2023-03-13T00:54:00.291Z,6.30
2023-03-13T00:56:26.748Z,6.50
2023-03-13T00:58:52.548Z,5.93
2023-03-13T01:01:26.082Z,6.35
2023-03-13T01:03:55.469Z,6.18
2023-03-13T01:06:22.291Z,6.35
2023-03-13T01:08:48.466Z,5.22
2023-03-13T01:11:18.418Z,5.95
2023-03-13T01:13:44.165Z,5.75
2023-03-13T01:16:11.552Z,4.90
2023-03-13T01:18:38.354Z,5.38
2023-03-13T01:21:04.692Z,5.15
2023-03-13T01:23:30.461Z,5.90
2023-03-13T01:25:56.498Z,4.80
2023-03-13T01:28:22.552Z,4.00
2023-03-13T01:30:48.308Z,4.65
2023-03-13T01:33:14.065Z,4.95
2023-03-13T01:35:40.151Z,4.20
2023-03-13T01:38:06.003Z,4.60
2023-03-13T01:40:31.738Z,4.80
2023-03-13T01:42:59.048Z,5.30
2023-03-13T01:45:43.479Z,4.18
2023-03-13T01:48:09.269Z,6.63
2023-03-13T01:50:34.989Z,5.05
2023-03-13T01:53:00.731Z,3.72
2023-03-13T01:55:26.526Z,4.50
2023-03-13T01:57:53.121Z,4.20
2023-03-13T02:00:21.146Z,5.28
2023-03-13T02:02:49.758Z,4.22
2023-03-13T02:05:16.460Z,6.53
2023-03-13T02:07:46.155Z,6.25
2023-03-13T02:10:12.850Z,3.70
2023-03-13T02:12:39.180Z,4.22
2023-03-13T02:15:07.008Z,4.47
2023-03-13T02:17:33.802Z,3.78
2023-03-13T02:19:59.513Z,3.90
2023-03-13T02:22:31.299Z,4.07
2023-03-13T02:25:02.839Z,4.03
2023-03-13T02:27:28.642Z,3.85
2023-03-13T02:29:54.551Z,3.80
2023-03-13T02:32:21.188Z,3.72
2023-03-13T02:34:48.713Z,4.03
2023-03-13T02:37:14.768Z,4.07
2023-03-13T02:39:46.009Z,3.75
2023-03-13T02:42:13.042Z,4.45
2023-03-13T02:44:39.554Z,4.35
2023-03-13T02:47:05.493Z,3.30
2023-03-13T02:49:31.299Z,4.13
2023-03-13T02:52:04.335Z,3.47
2023-03-13T02:54:32.118Z,3.55
2023-03-13T02:56:59.611Z,3.78
2023-03-13T02:59:25.851Z,4.43
2023-03-13T03:01:51.988Z,3.92
2023-03-13T03:04:21.643Z,3.10
2023-03-13T03:06:47.834Z,3.45
2023-03-13T03:09:13.711Z,3.47
2023-03-13T03:11:39.485Z,4.32
2023-03-13T03:14:05.324Z,3.92
2023-03-13T03:16:31.137Z,3.20
2023-03-13T03:18:56.928Z,3.85
2023-03-13T03:21:23.283Z,3.05
2023-03-13T03:23:49.379Z,3.85
2023-03-13T03:26:15.370Z,3.42
2023-03-13T03:28:41.110Z,3.53
2023-03-13T03:31:08.244Z,3.30
2023-03-13T03:33:34.051Z,3.55
2023-03-13T03:36:01.023Z,3.47
2023-03-13T03:38:26.902Z,4.05
2023-03-13T03:40:52.669Z,4.15
2023-03-13T03:43:18.395Z,4.68
2023-03-13T03:45:44.167Z,3.65
2023-03-13T03:48:09.938Z,4.35
2023-03-13T03:50:35.690Z,3.75
2023-03-13T03:53:01.427Z,3.90
2023-03-13T03:55:27.141Z,4.88
2023-03-13T03:57:52.937Z,4.13
2023-03-13T04:00:18.996Z,4.90
2023-03-13T04:02:44.964Z,3.95
2023-03-13T04:05:10.707Z,5.07
2023-03-13T04:07:36.578Z,5.47
2023-03-13T04:10:02.915Z,4.20
2023-03-13T04:12:28.832Z,5.05
2023-03-13T04:14:54.570Z,4.60
2023-03-13T04:17:20.268Z,3.90
2023-03-13T04:19:46.029Z,3.53
2023-03-13T04:22:11.767Z,5.20
2023-03-13T04:24:37.544Z,4.07
2023-03-13T04:27:05.819Z,3.65
2023-03-13T04:29:32.096Z,4.95
2023-03-13T04:31:57.883Z,5.53
2023-03-13T04:34:23.627Z,4.03
2023-03-13T04:36:49.369Z,4.10
2023-03-13T04:39:15.123Z,4.63
2023-03-13T04:41:40.871Z,3.92
2023-03-13T04:44:06.616Z,4.75
2023-03-13T04:46:32.471Z,5.82
2023-03-13T04:48:58.450Z,5.03
2023-03-13T04:51:24.348Z,4.35
2023-03-13T04:53:51.167Z,4.53
2023-03-13T04:56:41.172Z,4.80
2023-03-13T04:59:08.860Z,4.45
2023-03-13T05:01:34.903Z,5.63
2023-03-13T05:04:00.833Z,5.50
2023-03-13T05:06:26.588Z,5.47
2023-03-13T05:08:52.476Z,5.97
2023-03-13T05:11:18.410Z,4.90
2023-03-13T05:13:44.691Z,5.10
2023-03-13T05:16:10.632Z,5.43
2023-03-13T05:18:36.535Z,4.55
2023-03-13T05:21:02.540Z,5.18
2023-03-13T05:23:28.302Z,5.82
2023-03-13T05:25:54.133Z,5.50
2023-03-13T05:28:19.950Z,4.40
2023-03-13T05:30:45.807Z,6.10
2023-03-13T05:33:18.809Z,5.20
2023-03-13T05:35:45.279Z,6.07
2023-03-13T05:38:12.079Z,4.03
2023-03-13T05:40:38.164Z,6.63
2023-03-13T05:43:04.191Z,5.57
2023-03-13T05:45:30.269Z,6.43
2023-03-13T05:47:58.212Z,5.72
2023-03-13T05:50:24.169Z,4.72
2023-03-13T05:52:50.155Z,4.22
2023-03-13T05:55:16.958Z,4.63
2023-03-13T05:57:46.740Z,5.05
2023-03-13T06:00:13.620Z,7.25
2023-03-13T06:02:39.969Z,5.38
2023-03-13T06:05:05.956Z,4.30
2023-03-13T06:07:32.172Z,5.45
2023-03-13T06:09:58.807Z,4.85
2023-03-13T06:12:24.679Z,6.10
2023-03-13T06:14:50.521Z,5.88
2023-03-13T06:17:16.361Z,5.43
2023-03-13T06:19:46.325Z,5.15
2023-03-13T06:22:12.251Z,4.82
2023-03-13T06:24:38.492Z,5.90
2023-03-13T06:27:05.603Z,6.32
2023-03-13T06:29:31.412Z,5.53
2023-03-13T06:31:58.742Z,6.18
2023-03-13T06:34:25.285Z,6.72
2023-03-13T06:36:51.728Z,4.47
2023-03-13T06:39:17.755Z,6.13
2023-03-13T06:41:43.753Z,5.65
2023-03-13T06:44:09.680Z,4.97
2023-03-13T06:46:43.196Z,4.43
2023-03-13T06:49:09.815Z,5.07
2023-03-13T06:51:36.210Z,4.45
2023-03-13T06:54:05.128Z,3.70
2023-03-13T06:56:39.391Z,4.28
2023-03-13T06:59:21.774Z,3.55
2023-03-13T07:01:55.690Z,4.75
2023-03-13T07:05:11.656Z,5.28
2023-03-13T07:07:38.961Z,4.50
2023-03-13T07:10:05.613Z,3.88
2023-03-13T07:12:31.481Z,6.30
2023-03-13T07:14:57.352Z,4.65
2023-03-13T07:17:23.396Z,4.28
2023-03-13T07:19:50.661Z,5.43
2023-03-13T07:22:16.759Z,5.25
2023-03-13T07:24:42.765Z,5.20
2023-03-13T07:27:08.960Z,4.97
2023-03-13T07:29:34.862Z,4.45
2023-03-13T07:32:01.746Z,5.88
2023-03-13T07:34:27.993Z,4.65
2023-03-13T07:36:53.957Z,3.83
2023-03-13T07:39:21.439Z,3.80
2023-03-13T07:41:47.480Z,3.58
2023-03-13T07:44:13.337Z,4.18
2023-03-13T07:46:39.429Z,4.35
2023-03-13T07:49:05.403Z,4.47
2023-03-13T07:51:42.820Z,4.63
2023-03-13T07:54:10.470Z,3.40
2023-03-13T07:56:36.422Z,4.70
2023-03-13T07:59:02.491Z,4.82
2023-03-13T08:01:33.932Z,4.32
2023-03-13T08:04:03.442Z,3.75
2023-03-13T08:06:32.594Z,4.05
2023-03-13T08:08:59.580Z,5.05
2023-03-13T08:11:38.153Z,3.50
2023-03-13T08:14:04.158Z,3.58
2023-03-13T08:16:34.601Z,3.28
2023-03-13T08:19:01.402Z,3.03
2023-03-13T08:21:36.754Z,3.22
2023-03-13T08:24:05.537Z,3.20
2023-03-13T08:26:31.671Z,3.70
2023-03-13T08:28:59.001Z,3.28
2023-03-13T08:31:26.803Z,3.20
2023-03-13T08:33:52.924Z,3.15
2023-03-13T08:36:21.769Z,2.80
2023-03-13T08:38:48.578Z,4.07
2023-03-13T08:41:17.767Z,4.20
2023-03-13T08:43:44.751Z,2.63
2023-03-13T08:46:11.340Z,2.90
2023-03-13T08:48:38.002Z,3.75
2023-03-13T08:51:09.342Z,2.35
2023-03-13T08:56:18.874Z,3.58
2023-03-13T08:58:48.751Z,2.35
2023-03-13T09:01:16.083Z,2.93
2023-03-13T09:03:55.098Z,3.45
2023-03-13T09:06:21.294Z,2.60
2023-03-13T09:08:47.426Z,2.55
2023-03-13T09:11:18.441Z,2.67
2023-03-13T09:13:46.050Z,1.85
2023-03-13T09:16:15.153Z,2.55
2023-03-13T09:18:42.498Z,2.38
2023-03-13T09:21:10.226Z,2.22
2023-03-13T09:23:36.197Z,3.10
2023-03-13T09:26:02.057Z,2.08
2023-03-13T09:28:28.004Z,2.30
2023-03-13T09:30:54.409Z,2.80
2023-03-13T09:33:51.418Z,3.05
2023-03-13T09:36:21.259Z,2.53
2023-03-13T09:38:47.921Z,2.28
2023-03-13T09:41:19.881Z,1.90
2023-03-13T09:44:04.105Z,2.83
2023-03-13T09:46:36.897Z,2.22
2023-03-13T09:49:04.787Z,3.50
2023-03-13T09:51:32.533Z,2.72
2023-03-13T09:54:09.315Z,2.38
2023-03-13T09:57:02.266Z,2.42
2023-03-13T09:59:36.030Z,2.30
2023-03-13T10:02:03.807Z,1.92
2023-03-13T10:04:44.868Z,1.92
2023-03-13T10:07:11.243Z,1.60
2023-03-13T10:09:37.137Z,1.77
2023-03-13T10:12:13.033Z,2.05
2023-03-13T10:14:43.611Z,2.03
2023-03-13T10:19:56.946Z,1.30
2023-03-13T10:22:26.877Z,1.33
2023-03-13T10:24:57.734Z,2.38
2023-03-13T10:27:23.854Z,1.65
2023-03-13T10:29:50.268Z,3.33
2023-03-13T10:32:16.999Z,1.90
2023-03-13T10:55:00.793Z,1.33
2023-03-13T10:57:26.765Z,1.35
2023-03-13T10:59:55.460Z,1.05
2023-03-13T11:02:46.426Z,1.50
2023-03-13T11:05:31.264Z,1.83
2023-03-13T11:07:57.154Z,1.35
2023-03-13T11:10:22.979Z,0.88
2023-03-13T11:12:58.192Z,1.10
2023-03-13T11:15:27.134Z,0.90
2023-03-13T11:18:14.991Z,0.90
2023-03-13T11:20:43.745Z,0.95
2023-03-13T11:23:28.279Z,1.42
2023-03-13T11:26:09.985Z,1.08
2023-03-13T11:28:45.606Z,0.70
2023-03-13T11:31:25.851Z,0.70
2023-03-13T11:34:26.053Z,1.08
2023-03-13T11:36:51.893Z,1.00
2023-03-13T11:39:38.394Z,0.88
2023-03-13T11:42:05.431Z,0.77
2023-03-13T11:44:31.893Z,0.75
2023-03-13T11:47:09.949Z,1.42
2023-03-13T11:50:00.353Z,0.68
2023-03-13T11:52:37.258Z,0.52
2023-03-13T11:55:03.099Z,0.50
2023-03-13T11:57:52.432Z,0.90
2023-03-13T12:00:18.268Z,0.88
2023-03-13T12:03:06.060Z,0.70
2023-03-13T12:05:45.674Z,0.80
2023-03-13T12:08:25.833Z,0.80
2023-03-13T12:11:04.969Z,0.68
2023-03-13T12:13:41.669Z,0.73
2023-03-13T12:16:20.693Z,0.60
2023-03-13T12:18:48.678Z,0.85
2023-03-13T12:21:20.682Z,0.40
2023-03-13T12:23:53.146Z,0.35
2023-03-13T12:26:21.072Z,1.33
2023-03-13T12:28:51.789Z,0.40
2023-03-13T12:33:46.282Z,0.52
2023-03-13T12:36:28.745Z,0.55
2023-03-13T12:38:58.215Z,0.80
2023-03-13T12:41:27.542Z,0.73
2023-03-13T12:44:07.780Z,0.50
2023-03-13T12:46:41.071Z,1.20
2023-03-13T12:49:20.533Z,1.05
2023-03-13T12:51:49.493Z,0.50
2023-03-13T12:54:34.447Z,0.50
2023-03-13T12:57:00.342Z,0.60
2023-03-13T12:59:32.496Z,0.60
2023-03-13T13:01:58.529Z,0.80
2023-03-13T13:04:41.695Z,0.35
2023-03-13T13:07:20.205Z,0.70
2023-03-13T13:10:19.386Z,0.60
2023-03-13T13:12:46.897Z,0.90
2023-03-13T13:15:15.824Z,0.70
2023-03-13T13:17:48.642Z,0.70
2023-03-13T13:20:33.929Z,0.70
2023-03-13T13:23:18.587Z,0.90
2023-03-13T13:25:44.437Z,1.20
2023-03-13T13:28:13.579Z,1.33
2023-03-13T13:30:39.509Z,0.85
2023-03-13T13:33:50.307Z,0.60
2023-03-13T13:36:20.732Z,0.70
2023-03-13T13:38:47.619Z,0.93
2023-03-13T13:41:13.471Z,0.80
2023-03-13T13:43:49.664Z,0.85
2023-03-13T13:46:32.864Z,0.82
2023-03-13T13:49:08.198Z,0.70
2023-03-13T13:51:41.375Z,0.70
2023-03-13T13:54:26.352Z,0.82
2023-03-13T13:56:58.038Z,1.15
2023-03-13T13:59:31.640Z,0.88
2023-03-13T14:02:03.820Z,0.90
2023-03-13T14:04:38.429Z,0.93
2023-03-13T14:07:05.585Z,0.77
2023-03-13T14:09:36.413Z,0.80
2023-03-13T14:12:23.726Z,0.80
2023-03-13T14:15:06.261Z,0.80
2023-03-13T14:17:38.778Z,0.70
2023-03-13T14:20:08.682Z,1.13
2023-03-13T14:22:45.214Z,0.60
2023-03-13T14:25:11.966Z,0.98
2023-03-13T14:27:42.856Z,1.15
2023-03-13T14:30:09.312Z,1.13
2023-03-13T14:38:50.946Z,1.15
2023-03-13T14:41:24.106Z,0.70
2023-03-13T14:43:50.162Z,1.42
2023-03-13T14:46:25.042Z,0.80
2023-03-13T14:48:55.511Z,0.88
2023-03-13T14:51:24.078Z,1.08
2023-03-13T14:53:54.588Z,0.80
2023-03-13T14:56:20.492Z,0.77
2023-03-13T14:58:50.891Z,0.60
2023-03-13T15:01:30.438Z,0.73
2023-03-13T15:03:57.411Z,1.20
2023-03-13T15:06:27.657Z,0.70
2023-03-13T15:09:12.949Z,0.70
2023-03-13T15:11:43.211Z,0.98
2023-03-13T15:14:28.232Z,0.52
2023-03-13T15:16:54.380Z,0.82
2023-03-13T15:19:20.337Z,0.63
2023-03-13T15:21:50.744Z,1.10
2023-03-13T15:24:17.209Z,1.10
2023-03-13T15:26:43.285Z,1.27
2023-03-13T15:29:12.338Z,1.35
2023-03-13T15:31:39.272Z,0.98
2023-03-13T15:34:24.959Z,0.90
2023-03-13T15:36:51.119Z,0.95
2023-03-13T15:42:00.282Z,1.00
2023-03-13T15:44:26.212Z,0.95
2023-03-13T15:46:52.312Z,0.80
2023-03-13T15:49:18.141Z,0.80
2023-03-13T15:51:44.222Z,1.15
2023-03-13T15:54:12.445Z,1.15
2023-03-13T15:56:38.566Z,0.80
2023-03-13T15:59:15.832Z,0.90
2023-03-13T16:01:43.492Z,0.68
2023-03-13T16:04:16.332Z,1.10
2023-03-13T16:06:42.252Z,1.83
2023-03-13T16:09:08.258Z,1.33
2023-03-13T16:11:34.374Z,0.85
2023-03-13T16:14:00.473Z,1.08
2023-03-13T16:16:28.820Z,1.30
2023-03-13T16:18:55.367Z,1.02
2023-03-13T16:21:23.534Z,1.23
2023-03-13T16:23:49.628Z,1.15
2023-03-13T16:26:16.868Z,1.50
2023-03-13T16:28:43.074Z,0.90
2023-03-13T16:31:20.596Z,1.42
2023-03-13T16:33:54.095Z,1.33
2023-03-13T16:36:24.712Z,1.40
2023-03-13T16:38:50.948Z,1.40
2023-03-13T16:41:18.248Z,0.80
2023-03-13T16:43:44.829Z,1.20
2023-03-13T16:46:18.124Z,0.80
2023-03-13T16:48:44.567Z,0.85
2023-03-13T16:51:15.438Z,1.20
2023-03-13T16:53:41.594Z,1.38
2023-03-13T16:56:14.488Z,0.93
2023-03-13T16:58:40.379Z,1.50
2023-03-13T17:01:08.211Z,1.67
2023-03-13T17:03:43.865Z,1.10
2023-03-13T17:06:17.667Z,1.17
2023-03-13T17:08:43.702Z,1.20
2023-03-13T17:11:13.720Z,1.20
2023-03-13T17:16:24.871Z,1.20
2023-03-13T17:18:51.807Z,1.40
2023-03-13T17:21:19.611Z,1.60
2023-03-13T17:23:45.583Z,1.10
2023-03-13T17:26:14.042Z,1.95
2023-03-13T17:28:39.860Z,0.88
2023-03-13T17:31:05.973Z,1.77
2023-03-13T17:33:41.419Z,1.50
2023-03-13T17:36:16.734Z,1.20
2023-03-13T17:38:43.456Z,1.10
2023-03-13T17:41:10.995Z,1.30
2023-03-13T17:43:38.151Z,1.25
2023-03-13T17:46:08.956Z,1.15
2023-03-13T17:48:34.986Z,1.63
2023-03-13T17:51:01.005Z,1.33
2023-03-13T17:53:26.862Z,0.80
2023-03-13T17:55:52.839Z,1.35
2023-03-13T17:58:18.839Z,1.85
2023-03-13T18:00:46.884Z,1.35
2023-03-13T18:03:53.703Z,1.00
2023-03-13T18:06:26.889Z,0.90
2023-03-13T18:08:56.073Z,1.30
2023-03-13T18:11:23.319Z,1.02
2023-03-13T18:13:49.494Z,1.00
2023-03-13T18:16:25.960Z,0.80
2023-03-13T18:18:52.601Z,1.10
2023-03-13T18:21:18.660Z,1.00
2023-03-13T18:23:44.662Z,1.00
2023-03-13T18:26:21.655Z,0.90
2023-03-13T18:28:47.994Z,0.90
2023-03-13T18:31:13.988Z,0.90
2023-03-13T18:33:47.706Z,1.00
2023-03-13T18:36:15.876Z,1.33
2023-03-13T18:38:41.960Z,1.40
2023-03-13T18:41:10.049Z,1.75
2023-03-13T18:43:35.964Z,1.73
2023-03-13T18:46:02.363Z,1.75
2023-03-13T18:48:28.180Z,1.67
2023-03-13T18:50:54.070Z,1.40
2023-03-13T18:53:19.884Z,1.33
2023-03-13T18:55:46.111Z,1.30
2023-03-13T18:58:11.947Z,1.17
2023-03-13T19:00:38.536Z,1.30
2023-03-13T19:03:19.635Z,1.13
2023-03-13T19:05:45.442Z,1.30
2023-03-13T19:08:11.872Z,1.15
2023-03-13T19:10:38.108Z,0.90
2023-03-13T19:13:04.650Z,1.25
2023-03-13T19:15:31.217Z,1.10
2023-03-13T19:18:01.865Z,1.00
2023-03-13T19:20:29.120Z,1.42
2023-03-13T19:22:59.723Z,1.02
2023-03-13T19:25:25.738Z,1.15
2023-03-13T19:27:52.045Z,1.35
2023-03-13T19:30:19.660Z,1.67
2023-03-13T19:32:45.653Z,1.20
2023-03-13T19:35:12.411Z,1.58
2023-03-13T19:37:41.358Z,1.20
2023-03-13T19:40:28.171Z,1.42
2023-03-13T19:42:53.958Z,1.70
2023-03-13T19:45:21.372Z,1.90
2023-03-13T19:47:48.857Z,1.65
2023-03-13T19:50:16.493Z,1.67
2023-03-13T19:52:44.828Z,1.70
2023-03-13T19:55:11.225Z,1.20
2023-03-13T19:57:37.100Z,1.83
2023-03-13T20:00:04.194Z,2.05
2023-03-13T20:02:35.215Z,2.17
2023-03-13T20:05:01.001Z,1.80
2023-03-13T20:07:26.832Z,2.00
2023-03-13T20:09:52.710Z,1.85
2023-03-13T20:12:18.645Z,1.70
2023-03-13T20:14:44.499Z,1.80
2023-03-13T20:17:10.315Z,1.70
2023-03-13T20:19:36.178Z,1.92
2023-03-13T20:22:04.540Z,1.58
2023-03-13T20:24:33.519Z,2.75
2023-03-13T20:26:59.870Z,2.10
2023-03-13T20:29:25.689Z,2.45
2023-03-13T20:31:52.827Z,2.17
2023-03-13T20:34:18.796Z,2.08
2023-03-13T20:36:44.677Z,1.70
2023-03-13T20:39:10.700Z,2.08
2023-03-13T20:41:36.954Z,2.42
2023-03-13T20:44:02.811Z,1.77
2023-03-13T20:46:28.612Z,1.60
2023-03-13T20:48:54.375Z,1.88
2023-03-13T20:51:20.256Z,2.10
2023-03-13T20:53:46.128Z,1.95
2023-03-13T20:56:12.088Z,1.85
2023-03-13T20:58:38.421Z,1.75
2023-03-13T21:01:04.992Z,1.85
2023-03-13T21:03:36.247Z,1.70
2023-03-13T21:06:15.275Z,2.00
2023-03-13T21:08:41.291Z,2.05
2023-03-13T21:11:17.602Z,1.83
2023-03-13T21:13:46.739Z,1.50
2023-03-13T21:16:13.505Z,1.65
2023-03-13T21:18:39.726Z,1.40
2023-03-13T21:21:06.872Z,1.80
2023-03-13T21:23:33.009Z,2.35
2023-03-13T21:26:01.772Z,1.70
2023-03-13T21:28:28.471Z,1.42
2023-03-13T21:30:55.166Z,1.83
2023-03-13T21:33:36.288Z,1.48
2023-03-13T21:36:02.197Z,1.17
2023-03-13T21:38:27.996Z,1.42
2023-03-13T21:40:53.901Z,1.45
2023-03-13T21:43:19.664Z,2.00
2023-03-13T21:45:45.422Z,1.40
2023-03-13T21:48:11.155Z,1.45
2023-03-13T21:50:36.996Z,1.20
2023-03-13T21:53:03.077Z,1.13
2023-03-13T21:55:28.868Z,0.95
2023-03-13T21:57:55.034Z,1.10
2023-03-13T22:00:20.956Z,1.20
2023-03-13T22:02:55.575Z,0.80
2023-03-13T22:05:21.379Z,0.60
2023-03-13T22:07:47.287Z,1.00
2023-03-13T22:10:13.178Z,0.80
2023-03-13T22:12:39.005Z,1.52
2023-03-13T22:15:05.456Z,1.10
2023-03-13T22:17:31.957Z,0.55
2023-03-13T22:19:59.474Z,1.35
2023-03-13T22:22:25.659Z,1.02
2023-03-13T22:24:53.489Z,0.80
2023-03-13T22:27:19.227Z,0.75
2023-03-13T22:29:45.222Z,0.90
2023-03-13T22:32:20.111Z,0.98
2023-03-13T22:34:47.512Z,0.68
2023-03-13T22:37:13.356Z,0.63
2023-03-13T22:39:39.338Z,0.70
2023-03-13T22:42:05.443Z,1.02
2023-03-13T22:44:31.487Z,0.60
2023-03-13T22:46:57.208Z,0.70
2023-03-13T22:49:22.986Z,0.52
2023-03-13T22:51:49.102Z,0.77
2023-03-13T22:54:16.102Z,0.75
2023-03-13T22:56:41.845Z,0.70
2023-03-13T22:59:07.679Z,0.95
2023-03-13T23:01:33.413Z,0.68
2023-03-13T23:03:59.282Z,0.65
2023-03-13T23:06:25.154Z,0.77
2023-03-13T23:08:51.350Z,0.85
2023-03-13T23:11:17.650Z,0.82
2023-03-13T23:13:43.374Z,0.85
2023-03-13T23:16:10.805Z,0.80
2023-03-13T23:18:37.054Z,0.70
2023-03-13T23:21:03.870Z,0.80
2023-03-13T23:23:29.672Z,1.00
2023-03-13T23:25:57.868Z,0.75
2023-03-13T23:28:23.579Z,0.70
2023-03-13T23:30:49.329Z,0.47
2023-03-13T23:33:15.075Z,0.63
2023-03-13T23:35:41.034Z,0.55
2023-03-13T23:38:06.784Z,0.57
2023-03-13T23:40:32.508Z,0.60
2023-03-13T23:42:58.260Z,0.80
2023-03-13T23:45:24.021Z,0.75
2023-03-13T23:47:51.576Z,0.70
2023-03-13T23:50:17.343Z,0.77
2023-03-13T23:52:43.073Z,1.20
2023-03-13T23:55:09.237Z,0.90
2023-03-13T23:57:36.923Z,0.88
